Rock Port, Missouri
Current Conditions -  °F | °C
As of 8:35 AM on Thursday 23 Oct 2014 (Local Time) from KAFK Reporting Station
Haze Haze  
Wind Chill: 58°   Ceiling: 500
Heat Index: 58°   Visibility: 2mi
Dew Point: 58°   Wind: 6mph
Humidity: 100%   Direction: 240°WSW
Pressure: 30.05"   Gusts: NA
Location:  40.41°N, 95.52°W
Report Text: KAFK 231335Z AUTO 24005KT 2SM BR BKN005 BKN008 15/15 A3005 RMK AO2 T01470147
Loading
Personal Weather Stations






























Interactive Weather Map
Tropical Storm Tracking
New forecast layout! Learn more

10-Day Weather Forecast

Advertisements
Track Severe Weather on mobile